createdAt,value
2018-11-10T00:01:42.922Z,768.40
2018-11-10T00:04:11.243Z,772.85
2018-11-10T00:06:39.570Z,764.10
2018-11-10T00:09:08.375Z,765.60
2018-11-10T00:11:36.716Z,775.00
2018-11-10T00:14:05.138Z,767.10
2018-11-10T00:16:33.503Z,765.85
2018-11-10T00:19:01.774Z,771.15
2018-11-10T00:21:30.106Z,769.50
2018-11-10T00:23:58.630Z,764.85
2018-11-10T00:26:26.935Z,763.85
2018-11-10T00:28:55.206Z,757.98
2018-11-10T00:31:23.525Z,763.33
2018-11-10T00:33:51.806Z,774.65
2018-11-10T00:36:20.082Z,763.45
2018-11-10T00:38:48.353Z,765.75
2018-11-10T00:41:16.650Z,767.63
2018-11-10T00:43:44.966Z,770.12
2018-11-10T00:46:13.291Z,763.95
2018-11-10T00:48:41.596Z,758.75
2018-11-10T00:51:10.035Z,757.60
2018-11-10T00:53:38.326Z,759.52
2018-11-10T00:56:06.620Z,757.30
2018-11-10T00:58:34.894Z,761.17
2018-11-10T01:01:03.182Z,760.42
2018-11-10T01:03:31.467Z,754.30
2018-11-10T01:05:59.766Z,752.55
2018-11-10T01:08:28.066Z,754.67
2018-11-10T01:10:56.350Z,757.50
2018-11-10T01:13:24.615Z,756.63
2018-11-10T01:15:52.918Z,751.70
2018-11-10T01:18:21.199Z,750.47
2018-11-10T01:20:49.526Z,750.25
2018-11-10T01:23:17.815Z,762.15
2018-11-10T01:25:46.118Z,754.67
2018-11-10T01:28:14.415Z,749.95
2018-11-10T01:30:42.718Z,755.85
2018-11-10T01:33:11.002Z,751.00
2018-11-10T01:35:39.290Z,749.20
2018-11-10T01:38:07.626Z,756.40
2018-11-10T01:40:35.907Z,754.73
2018-11-10T01:43:04.270Z,748.30
2018-11-10T01:45:32.526Z,751.92
2018-11-10T01:48:00.826Z,744.65
2018-11-10T01:50:29.090Z,747.77
2018-11-10T01:52:57.402Z,750.17
2018-11-10T01:55:25.698Z,745.15
2018-11-10T01:57:53.986Z,748.60
2018-11-10T02:00:22.286Z,744.40
2018-11-10T02:02:50.578Z,747.77
2018-11-10T02:05:18.851Z,741.15
2018-11-10T02:07:47.253Z,751.87
2018-11-10T02:10:15.538Z,743.05
2018-11-10T02:12:43.848Z,741.60
2018-11-10T02:15:14.330Z,742.33
2018-11-10T02:17:42.602Z,740.55
2018-11-10T02:20:12.318Z,747.95
2018-11-10T02:22:40.854Z,740.52
2018-11-10T02:25:10.321Z,747.37
2018-11-10T02:27:38.743Z,748.52
2018-11-10T02:30:08.444Z,742.30
2018-11-10T02:32:36.743Z,760.90
2018-11-10T02:35:06.055Z,751.98
2018-11-10T02:37:34.368Z,745.00
2018-11-10T02:40:02.647Z,748.28
2018-11-10T02:42:30.938Z,746.03
2018-11-10T02:44:59.219Z,741.85
2018-11-10T02:47:27.509Z,738.60
2018-11-10T02:49:55.803Z,738.60
2018-11-10T02:52:24.127Z,757.70
2018-11-10T02:54:52.400Z,748.80
2018-11-10T02:57:20.694Z,738.25
2018-11-10T02:59:48.974Z,744.58
2018-11-10T03:02:17.271Z,741.73
2018-11-10T03:04:45.538Z,746.17
2018-11-10T03:07:13.855Z,751.67
2018-11-10T03:09:42.134Z,743.87
2018-11-10T03:12:10.418Z,747.33
2018-11-10T03:14:38.694Z,741.42
2018-11-10T03:17:06.976Z,741.85
2018-11-10T03:19:35.258Z,748.17
2018-11-10T03:22:03.586Z,748.40
2018-11-10T03:24:31.894Z,735.65
2018-11-10T03:27:00.183Z,731.60
2018-11-10T03:29:28.492Z,735.48
2018-11-10T03:31:56.782Z,737.30
2018-11-10T03:34:25.080Z,748.00
2018-11-10T03:36:53.389Z,741.62
2018-11-10T03:39:21.663Z,738.08
2018-11-10T03:41:49.976Z,738.05
2018-11-10T03:44:19.847Z,739.27
2018-11-10T03:46:49.381Z,738.48
2018-11-10T03:49:17.711Z,735.48
2018-11-10T03:51:45.994Z,735.97
2018-11-10T03:54:14.289Z,737.50
2018-11-10T03:56:42.570Z,740.30
2018-11-10T03:59:10.886Z,744.75
2018-11-10T04:01:39.186Z,742.37
2018-11-10T04:04:07.503Z,738.85
2018-11-10T04:06:35.797Z,733.70
2018-11-10T04:09:04.387Z,733.62
2018-11-10T04:11:32.679Z,734.50
2018-11-10T04:14:01.010Z,737.27
2018-11-10T04:16:29.286Z,734.65
2018-11-10T04:18:57.577Z,733.85
2018-11-10T04:21:25.894Z,734.25
2018-11-10T04:23:54.201Z,735.13
2018-11-10T04:26:22.490Z,747.90
2018-11-10T04:28:50.782Z,734.80
2018-11-10T04:31:19.090Z,736.05
2018-11-10T04:33:47.391Z,736.10
2018-11-10T04:36:15.675Z,734.27
2018-11-10T04:38:44.206Z,738.72
2018-11-10T04:41:12.506Z,739.42
2018-11-10T04:43:40.816Z,736.98
2018-11-10T04:46:09.115Z,738.30
2018-11-10T04:48:37.690Z,738.57
2018-11-10T04:51:06.214Z,736.47
2018-11-10T04:53:34.516Z,751.42
2018-11-10T04:56:02.790Z,743.03
2018-11-10T04:58:31.101Z,744.25
2018-11-10T05:00:59.390Z,741.02
2018-11-10T05:03:27.722Z,744.90
2018-11-10T05:05:56.003Z,734.58
2018-11-10T05:08:24.311Z,739.75
2018-11-10T05:10:52.582Z,735.45
2018-11-10T05:13:20.891Z,731.33
2018-11-10T05:15:49.162Z,741.58
2018-11-10T05:18:17.458Z,736.95
2018-11-10T05:20:45.723Z,728.98
2018-11-10T05:23:14.030Z,733.33
2018-11-10T05:25:42.294Z,730.63
2018-11-10T05:28:10.607Z,739.42
2018-11-10T05:30:38.894Z,738.48
2018-11-10T05:33:07.766Z,736.30
2018-11-10T05:35:36.443Z,742.33
2018-11-10T05:38:05.099Z,731.65
2018-11-10T05:40:33.551Z,732.27
2018-11-10T05:43:01.842Z,733.30
2018-11-10T05:45:30.147Z,731.47
2018-11-10T05:47:58.451Z,735.78
2018-11-10T05:50:27.498Z,744.62
2018-11-10T05:52:55.913Z,734.65
2018-11-10T05:55:24.189Z,731.97
2018-11-10T05:57:52.478Z,736.47
2018-11-10T06:00:20.755Z,732.00
2018-11-10T06:02:49.052Z,736.15
2018-11-10T06:05:17.427Z,737.92
2018-11-10T06:07:45.701Z,732.20
2018-11-10T06:10:14.175Z,728.95
2018-11-10T06:12:42.974Z,734.30
2018-11-10T06:15:11.382Z,733.35
2018-11-10T06:17:39.858Z,733.30
2018-11-10T06:20:10.214Z,736.95
2018-11-10T06:22:38.692Z,732.23
2018-11-10T06:25:07.862Z,732.80
2018-11-10T06:27:36.190Z,735.63
2018-11-10T06:30:05.655Z,733.00
2018-11-10T06:32:33.991Z,731.40
2018-11-10T06:35:02.256Z,731.02
2018-11-10T06:37:30.645Z,744.57
2018-11-10T06:39:59.254Z,740.33
2018-11-10T06:42:27.614Z,735.75
2018-11-10T06:44:55.943Z,731.87
2018-11-10T06:47:24.229Z,735.37
2018-11-10T06:49:52.532Z,739.97
2018-11-10T06:52:20.810Z,738.37
2018-11-10T06:54:49.106Z,742.73
2018-11-10T06:57:17.403Z,740.52
2018-11-10T06:59:45.711Z,741.03
2018-11-10T07:02:13.995Z,740.88
2018-11-10T07:04:42.303Z,742.90
2018-11-10T07:07:10.586Z,746.40
2018-11-10T07:09:38.892Z,739.50
2018-11-10T07:12:07.203Z,739.67
2018-11-10T07:14:35.510Z,741.88
2018-11-10T07:17:03.807Z,744.65
2018-11-10T07:19:32.111Z,764.58
2018-11-10T07:22:00.457Z,756.80
2018-11-10T07:24:28.739Z,756.87
2018-11-10T07:26:57.018Z,761.20
2018-11-10T07:29:25.511Z,766.85
2018-11-10T07:31:53.793Z,767.55
2018-11-10T07:34:22.109Z,756.45
2018-11-10T07:36:50.399Z,760.30
2018-11-10T07:39:18.716Z,765.58
2018-11-10T07:41:47.022Z,757.40
2018-11-10T07:44:15.381Z,757.80
2018-11-10T07:46:43.698Z,773.80
2018-11-10T07:49:11.990Z,767.40
2018-11-10T07:51:40.283Z,773.33
2018-11-10T07:54:08.575Z,774.27
2018-11-10T07:56:36.851Z,776.33
2018-11-10T07:59:05.653Z,782.33
2018-11-10T08:01:33.942Z,782.38
2018-11-10T08:04:02.321Z,788.50
2018-11-10T08:06:30.592Z,793.67
2018-11-10T08:08:58.872Z,799.73
2018-11-10T08:11:27.162Z,795.47
2018-11-10T08:13:55.496Z,805.45
2018-11-10T08:16:23.762Z,799.17
2018-11-10T08:18:52.132Z,797.20
2018-11-10T08:21:20.523Z,804.63
2018-11-10T08:23:48.786Z,797.75
2018-11-10T08:26:17.083Z,810.67
2018-11-10T08:28:45.378Z,807.02
2018-11-10T08:31:13.696Z,811.82
2018-11-10T08:33:41.985Z,816.32
2018-11-10T08:36:10.262Z,815.72
2018-11-10T08:38:38.562Z,823.65
2018-11-10T08:41:06.963Z,819.17
2018-11-10T08:43:35.257Z,832.63
2018-11-10T08:46:03.576Z,822.63
2018-11-10T08:48:31.864Z,823.32
2018-11-10T08:51:00.151Z,821.57
2018-11-10T08:53:28.418Z,824.85
2018-11-10T08:55:56.718Z,846.18
2018-11-10T08:58:25.022Z,828.22
2018-11-10T09:00:53.318Z,831.17
2018-11-10T09:03:21.645Z,830.55
2018-11-10T09:05:49.946Z,836.50
2018-11-10T09:08:18.222Z,839.38
2018-11-10T09:10:46.530Z,836.12
2018-11-10T09:13:14.904Z,845.40
2018-11-10T09:15:43.215Z,857.10
2018-11-10T09:18:11.495Z,860.03
2018-11-10T09:20:39.778Z,866.13
2018-11-10T09:23:08.070Z,855.80
2018-11-10T09:25:36.383Z,862.55
2018-11-10T09:28:04.770Z,868.33
2018-11-10T09:30:33.093Z,854.75
2018-11-10T09:33:01.378Z,866.00
2018-11-10T09:35:29.669Z,873.35
2018-11-10T09:37:58.002Z,887.18
2018-11-10T09:40:26.330Z,890.92
2018-11-10T09:42:54.607Z,883.65
2018-11-10T09:45:22.934Z,889.85
2018-11-10T09:47:51.230Z,906.20
2018-11-10T09:50:20.953Z,902.15
2018-11-10T09:52:49.379Z,914.90
2018-11-10T09:55:18.054Z,923.38
2018-11-10T09:57:46.513Z,926.80
2018-11-10T10:00:19.031Z,913.90
2018-11-10T10:02:47.769Z,913.15
2018-11-10T10:05:15.618Z,925.35
2018-11-10T10:07:44.366Z,931.08
2018-11-10T10:10:14.438Z,929.85
2018-11-10T10:12:43.220Z,903.82
2018-11-10T10:15:12.847Z,928.70
2018-11-10T10:17:42.151Z,928.00
2018-11-10T10:20:13.874Z,927.37
2018-11-10T10:22:42.402Z,939.40
2018-11-10T10:25:12.280Z,954.67
2018-11-10T10:27:40.632Z,955.85
2018-11-10T10:30:14.398Z,957.40
2018-11-10T10:32:43.447Z,955.12
2018-11-10T10:35:12.170Z,958.10
2018-11-10T10:37:40.332Z,960.20
2018-11-10T10:40:10.278Z,949.23
2018-11-10T10:42:38.597Z,959.42
2018-11-10T10:45:08.483Z,964.27
2018-11-10T10:47:36.778Z,971.27
2018-11-10T10:50:05.283Z,966.27
2018-11-10T10:52:33.619Z,975.83
2018-11-10T10:55:01.903Z,977.52
2018-11-10T10:57:30.315Z,984.73
2018-11-10T10:59:58.595Z,960.77
2018-11-10T11:02:32.355Z,963.83
2018-11-10T11:05:04.829Z,980.75
2018-11-10T11:07:33.203Z,966.85
2018-11-10T11:10:01.514Z,949.60
2018-11-10T11:12:29.825Z,955.57
2018-11-10T11:14:58.181Z,946.12
2018-11-10T11:17:26.478Z,912.37
2018-11-10T11:19:54.785Z,951.90
2018-11-10T11:22:23.118Z,949.02
2018-11-10T11:24:51.403Z,962.17
2018-11-10T11:27:19.687Z,934.50
2018-11-10T11:29:48.029Z,941.92
2018-11-10T11:32:16.293Z,949.85
2018-11-10T11:34:44.578Z,984.10
2018-11-10T11:37:12.901Z,942.33
2018-11-10T11:39:41.192Z,958.07
2018-11-10T11:42:09.495Z,967.53
2018-11-10T11:44:37.791Z,946.03
2018-11-10T11:47:06.120Z,969.97
2018-11-10T11:49:34.549Z,998.23
2018-11-10T11:52:02.839Z,988.00
2018-11-10T11:54:31.110Z,947.27
2018-11-10T11:56:59.406Z,994.95
2018-11-10T11:59:27.676Z,969.95
2018-11-10T12:01:55.974Z,999.98
2018-11-10T12:04:24.316Z,999.13
2018-11-10T12:06:52.654Z,1015.90
2018-11-10T12:09:20.955Z,996.10
2018-11-10T12:11:49.258Z,1002.78
2018-11-10T12:14:17.599Z,1009.95
2018-11-10T12:16:45.909Z,1011.70
2018-11-10T12:19:14.181Z,1008.35
2018-11-10T12:21:42.467Z,1012.28
2018-11-10T12:24:10.751Z,1010.42
2018-11-10T12:26:39.106Z,1004.22
2018-11-10T12:29:07.436Z,986.20
2018-11-10T12:31:35.735Z,983.63
2018-11-10T12:34:04.042Z,1029.08
2018-11-10T12:36:32.347Z,1027.98
2018-11-10T12:39:00.734Z,1032.10
2018-11-10T12:41:28.973Z,1021.25
2018-11-10T12:43:57.290Z,1021.87
2018-11-10T12:46:25.660Z,1023.87
2018-11-10T12:48:53.963Z,1004.30
2018-11-10T12:51:22.345Z,1019.53
2018-11-10T12:53:50.630Z,1006.80
2018-11-10T12:56:18.923Z,1009.20
2018-11-10T12:58:47.480Z,1003.23
2018-11-10T13:01:15.778Z,1021.60
2018-11-10T13:03:44.075Z,1032.00
2018-11-10T13:06:12.370Z,1020.23
2018-11-10T13:08:40.638Z,1017.33
2018-11-10T13:11:08.929Z,1000.55
2018-11-10T13:13:37.258Z,1016.68
2018-11-10T13:16:05.531Z,994.43
2018-11-10T13:18:33.829Z,1005.65
2018-11-10T13:21:02.128Z,1024.22
2018-11-10T13:23:30.438Z,1021.40
2018-11-10T13:25:58.723Z,981.58
2018-11-10T13:28:27.046Z,1006.55
2018-11-10T13:30:55.396Z,1007.67
2018-11-10T13:33:23.656Z,1009.35
2018-11-10T13:35:52.111Z,983.33
2018-11-10T13:38:20.459Z,1001.95
2018-11-10T13:40:48.736Z,956.70
2018-11-10T13:43:17.051Z,996.42
2018-11-10T13:45:45.354Z,1000.15
2018-11-10T13:48:13.656Z,1005.37
2018-11-10T13:50:42.078Z,1008.80
2018-11-10T13:53:10.279Z,1006.08
2018-11-10T13:55:38.574Z,996.33
2018-11-10T13:58:06.859Z,1004.75
2018-11-10T14:00:35.156Z,1017.55
2018-11-10T14:03:03.454Z,1014.83
2018-11-10T14:05:31.795Z,1002.90
2018-11-10T14:08:00.091Z,994.17
2018-11-10T14:10:28.440Z,987.92
2018-11-10T14:12:56.699Z,980.72
2018-11-10T14:15:24.961Z,980.90
2018-11-10T14:17:53.254Z,985.13
2018-11-10T14:20:21.566Z,986.00
2018-11-10T14:22:49.864Z,962.92
2018-11-10T14:25:18.394Z,995.85
2018-11-10T14:27:46.827Z,981.83
2018-11-10T14:30:16.405Z,948.30
2018-11-10T14:32:45.018Z,945.90
2018-11-10T14:35:13.711Z,968.88
2018-11-10T14:37:42.110Z,919.28
2018-11-10T14:40:15.367Z,970.35
2018-11-10T14:42:44.242Z,943.25
2018-11-10T14:45:13.766Z,958.62
2018-11-10T14:47:42.581Z,911.12
2018-11-10T14:50:11.658Z,948.35
2018-11-10T14:52:40.328Z,950.15
2018-11-10T14:55:09.402Z,962.10
2018-11-10T14:57:37.957Z,964.50
2018-11-10T15:00:10.195Z,971.25
2018-11-10T15:02:38.510Z,965.02
2018-11-10T15:05:07.242Z,955.90
2018-11-10T15:07:35.558Z,940.67
2018-11-10T15:10:04.823Z,961.75
2018-11-10T15:12:33.140Z,944.33
2018-11-10T15:15:01.414Z,945.70
2018-11-10T15:17:29.727Z,934.60
2018-11-10T15:19:58.024Z,942.20
2018-11-10T15:22:26.322Z,926.17
2018-11-10T15:24:54.595Z,922.25
2018-11-10T15:27:22.892Z,917.20
2018-11-10T15:29:51.170Z,915.38
2018-11-10T15:32:19.471Z,897.27
2018-11-10T15:34:47.754Z,922.38
2018-11-10T15:37:16.040Z,917.02
2018-11-10T15:39:44.318Z,900.53
2018-11-10T15:42:12.610Z,883.75
2018-11-10T15:44:41.022Z,896.48
2018-11-10T15:47:09.308Z,864.90
2018-11-10T15:49:38.406Z,883.30
2018-11-10T15:52:06.666Z,882.45
2018-11-10T15:54:34.945Z,876.30
2018-11-10T15:57:03.252Z,881.40
2018-11-10T15:59:31.569Z,856.60
2018-11-10T16:01:59.865Z,858.90
2018-11-10T16:04:28.159Z,891.30
2018-11-10T16:06:56.435Z,861.28
2018-11-10T16:09:24.734Z,845.03
2018-11-10T16:11:52.995Z,846.95
2018-11-10T16:14:21.314Z,853.15
2018-11-10T16:16:49.602Z,850.47
2018-11-10T16:19:17.993Z,938.60
2018-11-10T16:21:46.266Z,847.57
2018-11-10T16:24:14.656Z,847.27
2018-11-10T16:26:42.986Z,845.77
2018-11-10T16:29:11.294Z,843.30
2018-11-10T16:31:39.566Z,838.12
2018-11-10T16:34:07.887Z,837.30
2018-11-10T16:36:36.165Z,836.03
2018-11-10T16:39:05.799Z,837.52
2018-11-10T16:41:34.066Z,834.37
2018-11-10T16:44:02.366Z,833.02
2018-11-10T16:46:30.658Z,839.10
2018-11-10T16:48:58.962Z,834.77
2018-11-10T16:51:27.253Z,832.27
2018-11-10T16:53:55.555Z,829.65
2018-11-10T16:56:23.873Z,831.55
2018-11-10T16:58:52.172Z,825.13
2018-11-10T17:01:20.477Z,823.72
2018-11-10T17:03:48.790Z,820.77
2018-11-10T17:06:17.078Z,824.58
2018-11-10T17:08:45.395Z,831.50
2018-11-10T17:11:13.816Z,837.08
2018-11-10T17:13:42.220Z,831.17
2018-11-10T17:16:10.530Z,829.27
2018-11-10T17:18:38.987Z,836.82
2018-11-10T17:21:07.298Z,871.42
2018-11-10T17:23:35.574Z,906.47
2018-11-10T17:26:03.954Z,839.23
2018-11-10T17:28:32.274Z,813.60
2018-11-10T17:31:00.538Z,805.05
2018-11-10T17:33:28.840Z,808.85
2018-11-10T17:35:57.108Z,805.38
2018-11-10T17:38:25.427Z,807.70
2018-11-10T17:40:53.901Z,801.73
2018-11-10T17:43:22.203Z,802.30
2018-11-10T17:45:50.558Z,800.58
2018-11-10T17:48:18.918Z,808.23
2018-11-10T17:50:47.182Z,799.40
2018-11-10T17:53:15.447Z,804.08
2018-11-10T17:55:43.935Z,801.62
2018-11-10T17:58:12.203Z,801.48
2018-11-10T18:00:40.485Z,801.40
2018-11-10T18:03:08.793Z,797.30
2018-11-10T18:05:37.211Z,799.17
2018-11-10T18:08:06.549Z,809.90
2018-11-10T18:10:34.876Z,799.83
2018-11-10T18:13:03.230Z,802.55
2018-11-10T18:15:31.446Z,790.30
2018-11-10T18:17:59.750Z,788.67
2018-11-10T18:20:28.042Z,790.25
2018-11-10T18:22:56.308Z,791.38
2018-11-10T18:25:24.646Z,792.40
2018-11-10T18:27:52.946Z,789.27
2018-11-10T18:30:21.236Z,787.38
2018-11-10T18:32:49.526Z,791.52
2018-11-10T18:35:17.874Z,793.48
2018-11-10T18:37:46.181Z,788.10
2018-11-10T18:40:14.840Z,793.85
2018-11-10T18:42:42.977Z,789.78
2018-11-10T18:45:17.966Z,786.60
2018-11-10T18:47:46.258Z,790.20
2018-11-10T18:50:15.706Z,791.50
2018-11-10T18:52:44.048Z,791.00
2018-11-10T18:55:13.072Z,787.17
2018-11-10T18:57:41.548Z,789.02
2018-11-10T19:00:11.902Z,786.23
2018-11-10T19:02:40.489Z,783.10
2018-11-10T19:05:10.166Z,790.90
2018-11-10T19:07:38.732Z,781.67
2018-11-10T19:10:08.658Z,786.23
2018-11-10T19:12:37.997Z,782.30
2018-11-10T19:15:09.890Z,778.88
2018-11-10T19:17:38.388Z,780.45
2018-11-10T19:20:07.318Z,779.95
2018-11-10T19:22:35.628Z,783.50
2018-11-10T19:25:04.130Z,784.60
2018-11-10T19:27:32.416Z,776.80
2018-11-10T19:30:00.871Z,780.65
2018-11-10T19:32:29.224Z,779.92
2018-11-10T19:34:57.502Z,779.90
2018-11-10T19:37:25.795Z,777.17
2018-11-10T19:39:54.091Z,792.72
2018-11-10T19:42:22.359Z,781.85
2018-11-10T19:44:50.676Z,780.58
2018-11-10T19:47:19.983Z,785.17
2018-11-10T19:49:48.646Z,797.70
2018-11-10T19:52:17.342Z,808.20
2018-11-10T19:54:45.656Z,792.10
2018-11-10T19:57:13.963Z,796.42
2018-11-10T19:59:42.242Z,783.75
2018-11-10T20:02:10.522Z,781.13
2018-11-10T20:04:38.898Z,777.10
2018-11-10T20:07:07.165Z,781.10
2018-11-10T20:09:36.063Z,782.35
2018-11-10T20:12:04.394Z,779.65
2018-11-10T20:14:32.704Z,768.85
2018-11-10T20:17:00.983Z,779.67
2018-11-10T20:19:29.420Z,782.05
2018-11-10T20:21:57.824Z,777.00
2018-11-10T20:24:26.170Z,776.67
2018-11-10T20:26:54.515Z,771.10
2018-11-10T20:29:22.816Z,769.73
2018-11-10T20:31:51.115Z,776.10
2018-11-10T20:34:19.439Z,772.33
2018-11-10T20:36:47.736Z,772.67
2018-11-10T20:39:16.138Z,774.70
2018-11-10T20:41:44.418Z,764.78
2018-11-10T20:44:12.689Z,765.80
2018-11-10T20:46:41.014Z,776.02
2018-11-10T20:49:09.322Z,772.80
2018-11-10T20:51:37.602Z,775.08
2018-11-10T20:54:06.057Z,778.73
2018-11-10T20:56:34.374Z,773.90
2018-11-10T20:59:02.698Z,772.33
2018-11-10T21:01:31.013Z,778.40
2018-11-10T21:03:59.286Z,773.33
2018-11-10T21:06:27.578Z,767.90
2018-11-10T21:08:55.898Z,770.70
2018-11-10T21:11:24.217Z,767.40
2018-11-10T21:13:52.493Z,765.75
2018-11-10T21:16:20.818Z,772.70
2018-11-10T21:18:49.130Z,770.95
2018-11-10T21:21:17.406Z,768.30
2018-11-10T21:23:45.711Z,766.83
2018-11-10T21:26:14.042Z,763.10
2018-11-10T21:28:42.444Z,770.08
2018-11-10T21:31:10.827Z,772.42
2018-11-10T21:33:39.203Z,765.73
2018-11-10T21:36:07.439Z,769.95
2018-11-10T21:38:35.723Z,774.30
2018-11-10T21:41:04.183Z,766.52
2018-11-10T21:43:32.472Z,769.65
2018-11-10T21:46:00.816Z,767.58
2018-11-10T21:48:29.106Z,774.08
2018-11-10T21:50:57.443Z,761.38
2018-11-10T21:53:25.718Z,758.63
2018-11-10T21:55:54.034Z,766.52
2018-11-10T21:58:22.319Z,759.80
2018-11-10T22:00:50.606Z,756.02
2018-11-10T22:03:18.919Z,756.35
2018-11-10T22:05:47.235Z,757.92
2018-11-10T22:08:15.513Z,753.17
2018-11-10T22:10:43.806Z,763.17
2018-11-10T22:13:12.084Z,757.33
2018-11-10T22:15:40.394Z,757.55
2018-11-10T22:18:08.682Z,759.73
2018-11-10T22:20:36.966Z,754.27
2018-11-10T22:23:05.289Z,759.95
2018-11-10T22:25:33.554Z,757.75
2018-11-10T22:28:01.840Z,763.85
2018-11-10T22:30:30.116Z,759.42
2018-11-10T22:32:58.424Z,767.33
2018-11-10T22:35:26.711Z,757.58
2018-11-10T22:37:55.012Z,755.10
2018-11-10T22:40:23.309Z,753.90
2018-11-10T22:42:51.612Z,762.33
2018-11-10T22:45:20.970Z,753.73
2018-11-10T22:47:49.307Z,761.17
2018-11-10T22:50:19.071Z,760.80
2018-11-10T22:52:47.360Z,751.48
2018-11-10T22:55:15.651Z,753.62
2018-11-10T22:57:43.941Z,751.58
2018-11-10T23:00:24.895Z,762.67
2018-11-10T23:02:56.314Z,753.77
2018-11-10T23:05:25.094Z,749.42
2018-11-10T23:07:53.381Z,749.50
2018-11-10T23:10:21.982Z,750.22
2018-11-10T23:12:51.201Z,766.15
2018-11-10T23:15:19.469Z,754.38
2018-11-10T23:17:47.776Z,758.30
2018-11-10T23:20:17.299Z,747.53
2018-11-10T23:22:45.668Z,751.55
2018-11-10T23:25:15.207Z,753.70
2018-11-10T23:27:43.543Z,755.25
2018-11-10T23:30:14.451Z,744.83
2018-11-10T23:32:42.769Z,749.45
2018-11-10T23:35:11.628Z,747.37
2018-11-10T23:37:40.442Z,745.65
2018-11-10T23:40:10.652Z,745.92
2018-11-10T23:42:39.082Z,751.58
2018-11-10T23:45:07.726Z,750.55
2018-11-10T23:47:36.378Z,747.33
2018-11-10T23:50:05.119Z,748.92
2018-11-10T23:52:33.427Z,748.15
2018-11-10T23:55:01.700Z,749.92
2018-11-10T23:57:30.014Z,741.08
2018-11-10T23:59:58.322Z,745.42
